createdAt,value
2023-03-03T00:01:27.833Z,72.21
2023-03-03T00:04:00.826Z,72.85
2023-03-03T00:06:34.207Z,74.38
2023-03-03T00:09:07.271Z,75.04
2023-03-03T00:11:43.307Z,75.44
2023-03-03T00:14:23.617Z,75.44
2023-03-03T00:16:56.550Z,75.13
2023-03-03T00:19:31.384Z,74.57
2023-03-03T00:22:05.196Z,74.16
2023-03-03T00:24:40.130Z,74.34
2023-03-03T00:27:21.439Z,74.77
2023-03-03T00:29:53.469Z,76.36
2023-03-03T00:32:28.883Z,76.93
2023-03-03T00:35:21.294Z,76.67
2023-03-03T00:37:56.073Z,76.75
2023-03-03T00:40:32.692Z,76.24
2023-03-03T00:43:13.924Z,75.84
2023-03-03T00:45:47.674Z,76.51
2023-03-03T00:48:24.403Z,77.81
2023-03-03T00:50:58.255Z,78.24
2023-03-03T00:53:31.498Z,78.06
2023-03-03T00:56:04.495Z,77.54
2023-03-03T00:58:38.473Z,77.20
2023-03-03T01:01:11.241Z,76.79
2023-03-03T01:03:56.347Z,76.55
2023-03-03T01:06:29.908Z,76.58
2023-03-03T01:09:03.149Z,76.38
2023-03-03T01:11:36.453Z,77.34
2023-03-03T01:14:09.216Z,79.08
2023-03-03T01:16:45.008Z,80.09
2023-03-03T01:19:18.893Z,79.85
2023-03-03T01:21:52.602Z,79.49
2023-03-03T01:24:25.472Z,78.98
2023-03-03T01:26:58.371Z,78.79
2023-03-03T01:29:32.759Z,78.21
2023-03-03T01:32:06.095Z,77.96
2023-03-03T01:34:38.949Z,78.11
2023-03-03T01:37:12.113Z,79.10
2023-03-03T01:39:45.028Z,80.16
2023-03-03T01:42:18.090Z,80.73
2023-03-03T01:44:50.925Z,81.02
2023-03-03T01:47:23.604Z,80.73
2023-03-03T01:49:59.711Z,80.67
2023-03-03T01:52:34.784Z,80.94
2023-03-03T01:55:10.307Z,81.00
2023-03-03T01:57:45.118Z,80.92
2023-03-03T02:00:19.300Z,81.26
2023-03-03T02:02:52.405Z,82.17
2023-03-03T02:05:25.256Z,83.23
2023-03-03T02:07:58.035Z,83.88
2023-03-03T02:10:32.829Z,84.79
2023-03-03T02:13:06.072Z,84.21
2023-03-03T02:15:39.701Z,83.67
2023-03-03T02:18:16.381Z,83.64
2023-03-03T02:20:55.475Z,83.21
2023-03-03T02:23:34.845Z,83.17
2023-03-03T02:26:13.030Z,84.73
2023-03-03T02:28:47.873Z,85.20
2023-03-03T02:31:22.743Z,86.47
2023-03-03T02:33:57.697Z,87.92
2023-03-03T02:36:31.961Z,88.20
2023-03-03T02:39:07.127Z,88.50
2023-03-03T02:41:42.452Z,87.69
2023-03-03T02:44:16.375Z,87.10
2023-03-03T02:46:50.607Z,87.29
2023-03-03T02:49:25.344Z,87.76
2023-03-03T02:51:58.203Z,87.27
2023-03-03T02:54:31.638Z,88.68
2023-03-03T02:57:05.892Z,89.78
2023-03-03T02:59:39.401Z,90.81
2023-03-03T03:02:19.561Z,90.88
2023-03-03T03:04:53.557Z,91.20
2023-03-03T03:07:34.808Z,91.01
2023-03-03T03:10:11.699Z,90.80
2023-03-03T03:12:45.627Z,91.90
2023-03-03T03:15:19.289Z,94.99
2023-03-03T03:17:53.146Z,96.85
2023-03-03T03:20:28.328Z,97.46
2023-03-03T03:23:01.338Z,98.13
2023-03-03T03:25:34.790Z,98.35
2023-03-03T03:28:08.045Z,99.52
2023-03-03T03:30:45.924Z,100.00
2023-03-03T03:33:19.530Z,100.00
2023-03-03T03:35:52.596Z,100.00
2023-03-03T03:38:26.244Z,100.00
2023-03-03T03:40:59.601Z,100.00
2023-03-03T03:43:32.951Z,100.00
2023-03-03T03:46:07.043Z,100.00
2023-03-03T03:48:40.207Z,100.00
2023-03-03T03:51:14.958Z,100.00
2023-03-03T03:53:49.372Z,100.00
2023-03-03T03:56:22.609Z,100.00
2023-03-03T03:58:57.513Z,100.00
2023-03-03T04:01:30.872Z,100.00
2023-03-03T04:04:05.296Z,100.00
2023-03-03T04:06:38.532Z,100.00
2023-03-03T04:09:13.786Z,100.00
2023-03-03T04:11:47.545Z,100.00
2023-03-03T04:14:22.500Z,100.00
2023-03-03T04:16:55.768Z,100.00
2023-03-03T04:19:29.160Z,100.00
2023-03-03T04:22:03.177Z,100.00
2023-03-03T04:24:39.729Z,100.00
2023-03-03T04:27:16.496Z,100.00
2023-03-03T04:29:52.210Z,100.00
2023-03-03T04:32:25.446Z,100.00
2023-03-03T04:35:08.080Z,100.00
2023-03-03T04:37:49.466Z,100.00
2023-03-03T04:40:23.150Z,100.00
2023-03-03T04:42:58.425Z,100.00
2023-03-03T04:45:32.419Z,100.00
2023-03-03T04:48:05.268Z,100.00
2023-03-03T04:50:40.588Z,100.00
2023-03-03T04:53:13.703Z,100.00
2023-03-03T04:55:47.112Z,100.00
2023-03-03T04:58:20.989Z,100.00
2023-03-03T05:00:58.380Z,100.00
2023-03-03T05:03:32.561Z,100.00
2023-03-03T05:06:06.134Z,100.00
2023-03-03T05:08:39.418Z,100.00
2023-03-03T05:11:12.645Z,100.00
2023-03-03T05:13:46.385Z,100.00
2023-03-03T05:16:19.150Z,100.00
2023-03-03T05:18:52.136Z,100.00
2023-03-03T05:21:25.190Z,99.99
2023-03-03T05:23:58.213Z,99.21
2023-03-03T05:26:34.606Z,98.44
2023-03-03T05:29:07.362Z,98.25
2023-03-03T05:31:40.125Z,98.52
2023-03-03T05:34:12.960Z,98.36
2023-03-03T05:36:46.635Z,97.59
2023-03-03T05:39:20.007Z,96.69
2023-03-03T05:41:53.017Z,95.64
2023-03-03T05:44:25.692Z,94.55
2023-03-03T05:46:59.458Z,93.73
2023-03-03T05:49:36.556Z,93.40
2023-03-03T05:52:09.887Z,93.90
2023-03-03T05:54:42.988Z,94.15
2023-03-03T05:57:17.166Z,93.64
2023-03-03T05:59:53.553Z,92.53
2023-03-03T06:02:27.340Z,91.52
2023-03-03T06:05:00.193Z,90.16
2023-03-03T06:07:32.998Z,89.17
2023-03-03T06:10:06.786Z,88.77
2023-03-03T06:12:47.595Z,89.24
2023-03-03T06:15:22.029Z,89.63
2023-03-03T06:18:00.316Z,88.87
2023-03-03T06:20:34.230Z,87.87
2023-03-03T06:23:07.149Z,86.82
2023-03-03T06:25:42.354Z,85.37
2023-03-03T06:28:15.307Z,84.70
2023-03-03T06:30:49.740Z,84.42
2023-03-03T06:33:24.750Z,84.93
2023-03-03T06:35:57.575Z,84.50
2023-03-03T06:38:31.181Z,83.66
2023-03-03T06:41:07.561Z,82.09
2023-03-03T06:43:44.735Z,81.66
2023-03-03T06:46:17.574Z,81.01
2023-03-03T06:48:50.502Z,79.63
2023-03-03T06:51:28.461Z,80.23
2023-03-03T06:54:08.720Z,81.10
2023-03-03T06:56:42.209Z,80.88
2023-03-03T06:59:19.433Z,80.18
2023-03-03T07:01:52.782Z,79.03
2023-03-03T07:04:31.126Z,78.13
2023-03-03T07:07:09.127Z,77.63
2023-03-03T07:09:41.896Z,75.41
2023-03-03T07:12:17.257Z,74.28
2023-03-03T07:14:55.954Z,73.30
2023-03-03T07:17:29.245Z,73.03
2023-03-03T07:20:01.954Z,72.72
2023-03-03T07:22:35.274Z,71.79
2023-03-03T07:25:19.793Z,71.27
2023-03-03T07:27:52.667Z,70.51
2023-03-03T07:30:28.392Z,70.31
2023-03-03T07:33:01.867Z,69.69
2023-03-03T07:35:40.173Z,68.57
2023-03-03T07:38:25.420Z,68.38
2023-03-03T07:40:59.680Z,67.20
2023-03-03T07:43:38.397Z,66.50
2023-03-03T07:46:33.280Z,67.13
2023-03-03T07:49:14.280Z,67.64
2023-03-03T07:51:47.974Z,67.38
2023-03-03T07:54:37.681Z,66.60
2023-03-03T07:57:19.733Z,66.48
2023-03-03T07:59:53.656Z,66.95
2023-03-03T08:02:44.787Z,66.60
2023-03-03T08:05:40.450Z,65.89
2023-03-03T08:08:31.403Z,65.16
2023-03-03T08:11:04.383Z,64.12
2023-03-03T08:13:42.437Z,62.98
2023-03-03T08:16:38.672Z,62.11
2023-03-03T08:19:13.674Z,61.60
2023-03-03T08:21:47.097Z,61.44
2023-03-03T08:24:21.818Z,61.77
2023-03-03T08:26:54.977Z,61.95
2023-03-03T08:29:27.902Z,62.31
2023-03-03T08:32:02.397Z,62.19
2023-03-03T08:34:35.715Z,62.22
2023-03-03T08:37:08.932Z,61.77
2023-03-03T08:39:42.105Z,61.14
2023-03-03T08:42:16.337Z,61.05
2023-03-03T08:44:49.962Z,61.05
2023-03-03T08:47:23.444Z,60.39
2023-03-03T08:49:56.675Z,59.77
2023-03-03T08:52:29.548Z,59.71
2023-03-03T08:55:08.787Z,59.81
2023-03-03T08:57:44.720Z,59.08
2023-03-03T09:00:19.203Z,59.39
2023-03-03T09:02:52.394Z,59.45
2023-03-03T09:05:25.738Z,59.16
2023-03-03T09:08:00.816Z,58.75
2023-03-03T09:10:34.894Z,58.31
2023-03-03T09:13:13.195Z,58.42
2023-03-03T09:15:46.181Z,57.98
2023-03-03T09:18:20.206Z,57.65
2023-03-03T09:20:55.389Z,57.25
2023-03-03T09:23:35.906Z,56.59
2023-03-03T09:26:28.595Z,56.32
2023-03-03T09:29:09.628Z,55.27
2023-03-03T09:31:44.022Z,54.48
2023-03-03T09:34:23.765Z,54.24
2023-03-03T09:36:56.796Z,54.40
2023-03-03T09:39:30.664Z,54.00
2023-03-03T09:42:26.294Z,53.14
2023-03-03T09:45:24.480Z,52.32
2023-03-03T09:48:04.162Z,52.48
2023-03-03T09:50:42.517Z,52.01
2023-03-03T09:53:21.932Z,52.12
2023-03-03T09:55:58.475Z,50.78
2023-03-03T09:58:46.165Z,50.52
2023-03-03T10:01:48.205Z,50.49
2023-03-03T10:04:30.227Z,49.82
2023-03-03T10:07:08.792Z,49.82
2023-03-03T10:09:53.461Z,49.51
2023-03-03T10:12:31.414Z,48.74
2023-03-03T10:15:14.739Z,48.74
2023-03-03T10:17:54.302Z,47.51
2023-03-03T10:20:49.123Z,47.74
2023-03-03T10:23:30.404Z,48.16
2023-03-03T10:26:09.809Z,47.62
2023-03-03T10:29:30.975Z,47.37
2023-03-03T10:32:21.885Z,47.57
2023-03-03T10:35:36.137Z,47.90
2023-03-03T10:38:31.194Z,48.28
2023-03-03T10:41:17.273Z,48.09
2023-03-03T10:44:07.933Z,47.63
2023-03-03T10:46:47.608Z,47.26
2023-03-03T10:49:40.559Z,46.82
2023-03-03T10:52:25.977Z,46.42
2023-03-03T10:55:10.572Z,46.47
2023-03-03T10:57:46.666Z,47.02
2023-03-03T11:00:25.284Z,46.88
2023-03-03T11:03:11.331Z,47.02
2023-03-03T11:05:46.698Z,47.01
2023-03-03T11:08:32.680Z,47.03
2023-03-03T11:11:09.605Z,46.87
2023-03-03T11:13:47.159Z,46.63
2023-03-03T11:16:36.275Z,46.37
2023-03-03T11:19:18.541Z,46.79
2023-03-03T11:21:52.881Z,46.82
2023-03-03T11:24:39.328Z,46.86
2023-03-03T11:27:32.835Z,47.17
2023-03-03T11:30:13.576Z,47.42
2023-03-03T11:32:50.689Z,47.86
2023-03-03T11:35:29.420Z,48.01
2023-03-03T11:38:19.105Z,48.20
2023-03-03T11:40:52.943Z,48.64
2023-03-03T11:43:36.950Z,48.84
2023-03-03T11:46:13.268Z,49.03
2023-03-03T11:48:50.608Z,49.29
2023-03-03T11:51:28.914Z,49.54
2023-03-03T11:54:04.773Z,49.88
2023-03-03T11:56:41.571Z,50.13
2023-03-03T11:59:25.886Z,49.93
2023-03-03T12:01:59.376Z,49.58
2023-03-03T12:04:36.169Z,49.68
2023-03-03T12:07:19.816Z,49.70
2023-03-03T12:09:58.842Z,49.83
2023-03-03T12:12:53.361Z,49.20
2023-03-03T12:15:30.804Z,49.08
2023-03-03T12:18:27.291Z,48.69
2023-03-03T12:21:08.986Z,48.33
2023-03-03T12:24:04.456Z,48.22
2023-03-03T12:26:41.836Z,48.37
2023-03-03T12:29:20.759Z,48.34
2023-03-03T12:31:55.070Z,48.41
2023-03-03T12:34:31.186Z,48.35
2023-03-03T12:37:32.314Z,48.33
2023-03-03T12:40:11.289Z,48.48
2023-03-03T12:42:58.918Z,48.66
2023-03-03T12:45:57.264Z,48.93
2023-03-03T12:48:32.914Z,49.24
2023-03-03T12:51:08.133Z,49.55
2023-03-03T12:53:50.814Z,49.86
2023-03-03T12:56:27.858Z,49.87
2023-03-03T12:59:05.553Z,49.81
2023-03-03T13:01:57.763Z,49.72
2023-03-03T13:04:33.826Z,49.77
2023-03-03T13:07:17.483Z,49.76
2023-03-03T13:10:04.327Z,49.98
2023-03-03T13:12:42.044Z,50.21
2023-03-03T13:15:31.671Z,50.46
2023-03-03T13:18:22.019Z,50.71
2023-03-03T13:20:57.426Z,50.48
2023-03-03T13:23:38.528Z,50.31
2023-03-03T13:26:16.084Z,50.51
2023-03-03T13:28:57.854Z,50.75
2023-03-03T13:31:33.745Z,50.97
2023-03-03T13:34:06.638Z,51.10
2023-03-03T13:36:42.976Z,51.41
2023-03-03T13:39:20.643Z,51.65
2023-03-03T13:41:57.252Z,51.98
2023-03-03T13:44:33.482Z,52.31
2023-03-03T13:47:13.747Z,52.41
2023-03-03T13:50:02.599Z,52.62
2023-03-03T13:52:38.759Z,52.72
2023-03-03T13:55:21.703Z,52.80
2023-03-03T13:58:04.800Z,52.93
2023-03-03T14:00:44.801Z,52.89
2023-03-03T14:03:47.652Z,52.78
2023-03-03T14:06:21.049Z,52.86
2023-03-03T14:09:38.439Z,52.88
2023-03-03T14:12:18.646Z,52.96
2023-03-03T14:14:56.425Z,53.08
2023-03-03T14:17:39.656Z,53.28
2023-03-03T14:20:24.551Z,53.42
2023-03-03T14:23:01.513Z,53.71
2023-03-03T14:25:54.557Z,53.89
2023-03-03T14:28:28.579Z,54.13
2023-03-03T14:31:03.199Z,54.38
2023-03-03T14:33:41.703Z,54.59
2023-03-03T14:36:16.458Z,54.82
2023-03-03T14:38:52.912Z,55.09
2023-03-03T14:41:37.852Z,55.41
2023-03-03T14:44:34.714Z,55.69
2023-03-03T14:47:22.022Z,56.34
2023-03-03T14:50:00.338Z,56.78
2023-03-03T14:52:36.058Z,56.88
2023-03-03T14:55:31.878Z,57.15
2023-03-03T14:58:05.175Z,57.12
2023-03-03T15:00:38.972Z,57.27
2023-03-03T15:03:24.961Z,57.33
2023-03-03T15:05:58.620Z,57.38
2023-03-03T15:08:36.994Z,57.57
2023-03-03T15:11:27.688Z,57.75
2023-03-03T15:14:13.740Z,58.38
2023-03-03T15:16:46.904Z,58.83
2023-03-03T15:19:46.579Z,59.39
2023-03-03T15:22:23.700Z,59.20
2023-03-03T15:25:00.373Z,59.19
2023-03-03T15:27:36.760Z,59.16
2023-03-03T15:30:20.317Z,59.17
2023-03-03T15:32:56.887Z,59.13
2023-03-03T15:35:37.750Z,59.18
2023-03-03T15:38:17.646Z,59.28
2023-03-03T15:40:52.486Z,59.24
2023-03-03T15:44:20.111Z,59.26
2023-03-03T15:47:08.990Z,59.36
2023-03-03T15:50:05.308Z,59.50
2023-03-03T15:52:45.191Z,59.61
2023-03-03T15:55:26.180Z,59.62
2023-03-03T15:58:07.253Z,59.70
2023-03-03T16:00:48.022Z,59.81
2023-03-03T16:03:28.105Z,60.01
2023-03-03T16:06:03.446Z,60.01
2023-03-03T16:08:46.257Z,60.16
2023-03-03T16:11:23.595Z,60.25
2023-03-03T16:14:12.423Z,60.38
2023-03-03T16:16:50.865Z,60.67
2023-03-03T16:19:33.648Z,60.51
2023-03-03T16:22:29.254Z,60.65
2023-03-03T16:25:08.529Z,61.03
2023-03-03T16:27:43.522Z,61.13
2023-03-03T16:30:27.192Z,61.09
2023-03-03T16:33:09.707Z,61.16
2023-03-03T16:35:46.420Z,61.31
2023-03-03T16:38:21.553Z,61.54
2023-03-03T16:40:57.146Z,61.80
2023-03-03T16:43:38.865Z,62.05
2023-03-03T16:46:19.698Z,62.20
2023-03-03T16:48:59.238Z,62.36
2023-03-03T16:51:39.467Z,63.35
2023-03-03T16:54:15.906Z,64.71
2023-03-03T16:56:50.093Z,65.12
2023-03-03T16:59:44.073Z,65.19
2023-03-03T17:02:37.857Z,64.77
2023-03-03T17:05:17.360Z,64.53
2023-03-03T17:08:13.924Z,63.96
2023-03-03T17:10:52.578Z,63.51
2023-03-03T17:13:42.337Z,63.43
2023-03-03T17:16:19.240Z,63.23
2023-03-03T17:18:58.064Z,63.03
2023-03-03T17:21:40.944Z,63.06
2023-03-03T17:24:17.594Z,62.98
2023-03-03T17:26:57.978Z,63.39
2023-03-03T17:29:38.489Z,64.35
2023-03-03T17:32:20.632Z,65.42
2023-03-03T17:35:01.358Z,65.67
2023-03-03T17:37:42.281Z,65.31
2023-03-03T17:40:24.958Z,64.76
2023-03-03T17:43:01.174Z,64.33
2023-03-03T17:45:35.787Z,63.92
2023-03-03T17:48:19.602Z,63.72
2023-03-03T17:51:01.169Z,63.74
2023-03-03T17:53:44.543Z,63.65
2023-03-03T17:56:21.892Z,63.67
2023-03-03T17:59:02.667Z,63.63
2023-03-03T18:01:45.595Z,63.68
2023-03-03T18:04:27.845Z,63.62
2023-03-03T18:07:19.675Z,63.68
2023-03-03T18:10:16.588Z,63.69
2023-03-03T18:12:54.932Z,63.86
2023-03-03T18:15:34.815Z,64.03
2023-03-03T18:18:11.359Z,64.22
2023-03-03T18:21:03.042Z,64.29
2023-03-03T18:23:43.331Z,64.07
2023-03-03T18:26:40.727Z,64.61
2023-03-03T18:29:21.837Z,65.71
2023-03-03T18:32:03.945Z,66.22
2023-03-03T18:34:41.365Z,65.77
2023-03-03T18:37:34.041Z,65.08
2023-03-03T18:40:28.631Z,64.62
2023-03-03T18:43:02.338Z,64.27
2023-03-03T18:45:57.637Z,63.82
2023-03-03T18:48:50.896Z,63.52
2023-03-03T18:51:53.460Z,63.42
2023-03-03T18:54:31.431Z,63.56
2023-03-03T18:57:18.990Z,63.46
2023-03-03T19:00:02.873Z,63.41
2023-03-03T19:02:46.635Z,63.39
2023-03-03T19:05:24.982Z,63.42
2023-03-03T19:08:00.916Z,63.45
2023-03-03T19:10:57.413Z,63.50
2023-03-03T19:13:56.053Z,63.53
2023-03-03T19:16:41.767Z,63.69
2023-03-03T19:19:18.481Z,64.02
2023-03-03T19:21:54.410Z,64.52
2023-03-03T19:24:34.033Z,65.40
2023-03-03T19:27:27.992Z,66.60
2023-03-03T19:30:23.023Z,67.61
2023-03-03T19:36:33.812Z,67.59
2023-03-03T19:39:17.121Z,67.22
2023-03-03T19:41:56.384Z,66.63
2023-03-03T19:44:36.504Z,66.01
2023-03-03T19:47:29.469Z,65.60
2023-03-03T19:50:07.898Z,65.46
2023-03-03T19:52:43.248Z,65.14
2023-03-03T19:55:25.819Z,64.83
2023-03-03T19:58:03.553Z,64.46
2023-03-03T20:00:39.232Z,64.25
2023-03-03T20:03:31.452Z,63.91
2023-03-03T20:06:11.799Z,63.86
2023-03-03T20:08:50.796Z,63.76
2023-03-03T20:11:46.482Z,63.58
2023-03-03T20:14:25.584Z,63.45
2023-03-03T20:16:58.976Z,63.22
2023-03-03T20:19:41.022Z,63.26
2023-03-03T20:22:14.961Z,64.26
2023-03-03T20:25:02.662Z,64.64
2023-03-03T20:27:41.297Z,64.40
2023-03-03T20:30:29.127Z,64.06
2023-03-03T20:33:16.920Z,63.81
2023-03-03T20:35:54.928Z,63.69
2023-03-03T20:38:33.767Z,63.58
2023-03-03T20:41:12.743Z,63.59
2023-03-03T20:43:56.833Z,63.46
2023-03-03T20:46:34.477Z,63.35
2023-03-03T20:49:15.500Z,63.36
2023-03-03T20:51:52.156Z,63.43
2023-03-03T20:54:28.365Z,64.33
2023-03-03T20:57:05.869Z,64.80
2023-03-03T20:59:41.802Z,64.51
2023-03-03T21:02:19.488Z,64.13
2023-03-03T21:05:07.992Z,63.92
2023-03-03T21:07:41.545Z,63.81
2023-03-03T21:10:17.455Z,63.70
2023-03-03T21:12:50.272Z,63.47
2023-03-03T21:15:29.569Z,63.21
2023-03-03T21:18:02.281Z,63.03
2023-03-03T21:20:36.423Z,62.90
2023-03-03T21:23:12.186Z,62.67
2023-03-03T21:26:01.548Z,62.58
2023-03-03T21:28:35.913Z,62.60
2023-03-03T21:31:14.533Z,62.64
2023-03-03T21:33:50.677Z,62.75
2023-03-03T21:36:24.989Z,62.80
2023-03-03T21:38:58.732Z,62.71
2023-03-03T21:41:34.323Z,62.69
2023-03-03T21:44:15.205Z,62.77
2023-03-03T21:46:47.873Z,63.21
2023-03-03T21:49:43.373Z,64.23
2023-03-03T21:52:18.636Z,64.45
2023-03-03T21:54:53.343Z,64.26
2023-03-03T21:57:31.312Z,63.95
2023-03-03T22:00:05.949Z,63.69
2023-03-03T22:02:41.365Z,63.54
2023-03-03T22:05:14.883Z,63.55
2023-03-03T22:07:47.919Z,63.78
2023-03-03T22:10:20.863Z,63.95
2023-03-03T22:12:53.957Z,64.20
2023-03-03T22:15:33.560Z,64.34
2023-03-03T22:18:07.126Z,64.51
2023-03-03T22:20:39.878Z,65.48
2023-03-03T22:23:12.797Z,66.80
2023-03-03T22:25:46.164Z,67.41
2023-03-03T22:28:23.885Z,67.64
2023-03-03T22:30:57.592Z,67.47
2023-03-03T22:33:35.352Z,67.83
2023-03-03T22:36:10.168Z,68.06
2023-03-03T22:38:43.374Z,68.66
2023-03-03T22:41:17.476Z,69.73
2023-03-03T22:43:50.493Z,71.41
2023-03-03T22:46:23.299Z,72.33
2023-03-03T22:48:56.105Z,72.80
2023-03-03T22:51:28.863Z,72.75
2023-03-03T22:54:01.872Z,72.74
2023-03-03T22:56:34.683Z,72.84
2023-03-03T22:59:07.567Z,73.14
2023-03-03T23:01:40.616Z,74.95
2023-03-03T23:04:13.845Z,75.48
2023-03-03T23:06:47.064Z,76.07
2023-03-03T23:09:24.994Z,76.56
2023-03-03T23:12:03.389Z,76.54
2023-03-03T23:14:36.950Z,76.92
2023-03-03T23:17:13.100Z,78.02
2023-03-03T23:19:49.617Z,78.68
2023-03-03T23:22:23.089Z,78.68
2023-03-03T23:24:56.294Z,78.83
2023-03-03T23:27:29.245Z,78.64
2023-03-03T23:30:02.190Z,79.41
2023-03-03T23:32:35.627Z,80.41
2023-03-03T23:35:09.450Z,80.91
2023-03-03T23:37:42.580Z,80.85
2023-03-03T23:40:16.634Z,80.63
2023-03-03T23:42:49.944Z,80.49
2023-03-03T23:45:22.671Z,80.24
2023-03-03T23:47:56.747Z,81.05
2023-03-03T23:50:30.139Z,82.04
2023-03-03T23:53:02.992Z,82.36
2023-03-03T23:55:37.952Z,82.34
2023-03-03T23:58:11.844Z,81.84
